sensor_id;sensor_type;location;lat;lon;timestamp;pressure;altitude;pressure_sealevel;temperature
25985;BMP280;66753;53.848;10.658;2023-02-12T00:03:58;103454.75;;;9.21
25985;BMP280;66753;53.848;10.658;2023-02-12T00:08:59;103468.78;;;9.17
25985;BMP280;66753;53.848;10.658;2023-02-12T00:14:00;103469.56;;;9.17
25985;BMP280;66753;53.848;10.658;2023-02-12T00:19:01;103474.06;;;9.17
25985;BMP280;66753;53.848;10.658;2023-02-12T00:24:02;103474.53;;;9.14
25985;BMP280;66753;53.848;10.658;2023-02-12T00:29:02;103486.25;;;9.18
25985;BMP280;66753;53.848;10.658;2023-02-12T00:34:03;103493.66;;;9.21
25985;BMP280;66753;53.848;10.658;2023-02-12T00:39:03;103488.31;;;9.16
25985;BMP280;66753;53.848;10.658;2023-02-12T00:44:04;103494.13;;;9.13
25985;BMP280;66753;53.848;10.658;2023-02-12T00:49:04;103500.19;;;9.08
25985;BMP280;66753;53.848;10.658;2023-02-12T00:54:05;103497.28;;;9.10
25985;BMP280;66753;53.848;10.658;2023-02-12T00:59:05;103503.91;;;9.12
25985;BMP280;66753;53.848;10.658;2023-02-12T01:04:06;103507.81;;;9.05
25985;BMP280;66753;53.848;10.658;2023-02-12T01:09:07;103508.78;;;8.93
25985;BMP280;66753;53.848;10.658;2023-02-12T01:14:08;103504.28;;;8.89
25985;BMP280;66753;53.848;10.658;2023-02-12T01:19:10;103514.53;;;8.85
25985;BMP280;66753;53.848;10.658;2023-02-12T01:24:10;103524.03;;;8.81
25985;BMP280;66753;53.848;10.658;2023-02-12T01:29:11;103526.97;;;8.80
25985;BMP280;66753;53.848;10.658;2023-02-12T01:34:11;103532.97;;;8.75
25985;BMP280;66753;53.848;10.658;2023-02-12T01:39:12;103539.41;;;8.84
25985;BMP280;66753;53.848;10.658;2023-02-12T01:44:19;103533.75;;;8.76
25985;BMP280;66753;53.848;10.658;2023-02-12T01:49:33;103539.31;;;8.74
25985;BMP280;66753;53.848;10.658;2023-02-12T01:54:36;103544.59;;;8.74
25985;BMP280;66753;53.848;10.658;2023-02-12T01:59:37;103537.72;;;8.73
25985;BMP280;66753;53.848;10.658;2023-02-12T02:04:45;103543.28;;;8.77
25985;BMP280;66753;53.848;10.658;2023-02-12T02:09:48;103548.91;;;8.80
25985;BMP280;66753;53.848;10.658;2023-02-12T02:14:52;103532.25;;;8.80
25985;BMP280;66753;53.848;10.658;2023-02-12T02:25:35;103521.91;;;8.83
25985;BMP280;66753;53.848;10.658;2023-02-12T02:30:55;103520.59;;;8.81
25985;BMP280;66753;53.848;10.658;2023-02-12T02:41:08;103520.84;;;8.79
25985;BMP280;66753;53.848;10.658;2023-02-12T02:46:45;103517.44;;;8.84
25985;BMP280;66753;53.848;10.658;2023-02-12T02:51:49;103508.38;;;8.75
25985;BMP280;66753;53.848;10.658;2023-02-12T02:56:54;103522.94;;;8.77
25985;BMP280;66753;53.848;10.658;2023-02-12T03:02:00;103532.44;;;8.73
25985;BMP280;66753;53.848;10.658;2023-02-12T03:07:07;103524.25;;;8.75
25985;BMP280;66753;53.848;10.658;2023-02-12T03:12:12;103530.31;;;8.75
25985;BMP280;66753;53.848;10.658;2023-02-12T03:17:34;103537.22;;;8.76
25985;BMP280;66753;53.848;10.658;2023-02-12T03:22:40;103538.00;;;8.77
25985;BMP280;66753;53.848;10.658;2023-02-12T03:27:50;103548.19;;;8.63
25985;BMP280;66753;53.848;10.658;2023-02-12T03:33:01;103546.56;;;8.57
25985;BMP280;66753;53.848;10.658;2023-02-12T03:38:14;103553.91;;;8.55
25985;BMP280;66753;53.848;10.658;2023-02-12T03:43:27;103560.25;;;8.54
25985;BMP280;66753;53.848;10.658;2023-02-12T03:53:40;103570.66;;;8.61
25985;BMP280;66753;53.848;10.658;2023-02-12T03:58:44;103570.94;;;8.64
25985;BMP280;66753;53.848;10.658;2023-02-12T04:03:45;103570.75;;;8.71
25985;BMP280;66753;53.848;10.658;2023-02-12T04:08:46;103573.69;;;8.74
25985;BMP280;66753;53.848;10.658;2023-02-12T04:14:26;103573.13;;;8.72
25985;BMP280;66753;53.848;10.658;2023-02-12T04:19:39;103577.91;;;8.70
25985;BMP280;66753;53.848;10.658;2023-02-12T04:30:20;103582.69;;;8.52
25985;BMP280;66753;53.848;10.658;2023-02-12T04:40:30;103581.63;;;8.48
25985;BMP280;66753;53.848;10.658;2023-02-12T04:45:34;103591.88;;;8.44
25985;BMP280;66753;53.848;10.658;2023-02-12T04:50:41;103592.38;;;8.41
25985;BMP280;66753;53.848;10.658;2023-02-12T04:55:42;103598.50;;;8.47
25985;BMP280;66753;53.848;10.658;2023-02-12T05:00:43;103595.06;;;8.46
25985;BMP280;66753;53.848;10.658;2023-02-12T05:05:43;103608.88;;;8.53
25985;BMP280;66753;53.848;10.658;2023-02-12T05:10:44;103607.28;;;8.52
25985;BMP280;66753;53.848;10.658;2023-02-12T05:15:44;103604.94;;;8.51
25985;BMP280;66753;53.848;10.658;2023-02-12T05:20:44;103606.56;;;8.57
25985;BMP280;66753;53.848;10.658;2023-02-12T05:25:45;103608.44;;;8.61
25985;BMP280;66753;53.848;10.658;2023-02-12T05:30:45;103606.06;;;8.60
25985;BMP280;66753;53.848;10.658;2023-02-12T05:35:46;103604.72;;;8.57
25985;BMP280;66753;53.848;10.658;2023-02-12T05:40:46;103614.25;;;8.58
25985;BMP280;66753;53.848;10.658;2023-02-12T05:45:47;103606.81;;;8.55
25985;BMP280;66753;53.848;10.658;2023-02-12T05:50:47;103619.53;;;8.58
25985;BMP280;66753;53.848;10.658;2023-02-12T05:55:47;103624.31;;;8.61
25985;BMP280;66753;53.848;10.658;2023-02-12T06:00:48;103624.59;;;8.60
25985;BMP280;66753;53.848;10.658;2023-02-12T06:05:52;103630.41;;;8.62
25985;BMP280;66753;53.848;10.658;2023-02-12T06:10:52;103633.81;;;8.57
25985;BMP280;66753;53.848;10.658;2023-02-12T06:15:53;103628.78;;;8.56
25985;BMP280;66753;53.848;10.658;2023-02-12T06:20:53;103627.16;;;8.55
25985;BMP280;66753;53.848;10.658;2023-02-12T06:25:55;103616.31;;;8.56
25985;BMP280;66753;53.848;10.658;2023-02-12T06:30:56;103621.63;;;8.56
25985;BMP280;66753;53.848;10.658;2023-02-12T06:35:56;103629.56;;;8.56
25985;BMP280;66753;53.848;10.658;2023-02-12T06:41:00;103632.81;;;8.63
25985;BMP280;66753;53.848;10.658;2023-02-12T06:46:02;103640.81;;;8.68
25985;BMP280;66753;53.848;10.658;2023-02-12T06:51:15;103654.53;;;8.65
25985;BMP280;66753;53.848;10.658;2023-02-12T06:56:16;103652.47;;;8.72
25985;BMP280;66753;53.848;10.658;2023-02-12T07:01:19;103665.78;;;8.77
25985;BMP280;66753;53.848;10.658;2023-02-12T07:06:21;103669.28;;;8.83
25985;BMP280;66753;53.848;10.658;2023-02-12T07:11:23;103670.06;;;8.83
25985;BMP280;66753;53.848;10.658;2023-02-12T07:16:24;103674.53;;;8.78
25985;BMP280;66753;53.848;10.658;2023-02-12T07:21:25;103688.56;;;8.78
25985;BMP280;66753;53.848;10.658;2023-02-12T07:26:25;103691.00;;;8.85
25985;BMP280;66753;53.848;10.658;2023-02-12T07:31:26;103696.06;;;8.87
25985;BMP280;66753;53.848;10.658;2023-02-12T07:36:30;103700.34;;;8.93
25985;BMP280;66753;53.848;10.658;2023-02-12T07:41:33;103700.69;;;8.96
25985;BMP280;66753;53.848;10.658;2023-02-12T07:46:40;103704.09;;;8.97
25985;BMP280;66753;53.848;10.658;2023-02-12T07:51:41;103717.94;;;9.04
25985;BMP280;66753;53.848;10.658;2023-02-12T07:56:43;103736.34;;;9.15
25985;BMP280;66753;53.848;10.658;2023-02-12T08:01:48;103730.81;;;9.17
25985;BMP280;66753;53.848;10.658;2023-02-12T08:06:50;103732.13;;;9.19
25985;BMP280;66753;53.848;10.658;2023-02-12T08:11:51;103747.59;;;9.27
25985;BMP280;66753;53.848;10.658;2023-02-12T08:16:52;103750.03;;;9.34
25985;BMP280;66753;53.848;10.658;2023-02-12T08:21:54;103747.44;;;9.39
25985;BMP280;66753;53.848;10.658;2023-02-12T08:26:55;103751.13;;;9.38
25985;BMP280;66753;53.848;10.658;2023-02-12T08:31:58;103748.00;;;9.46
25985;BMP280;66753;53.848;10.658;2023-02-12T08:36:59;103755.56;;;9.59
25985;BMP280;66753;53.848;10.658;2023-02-12T08:42:00;103768.44;;;9.72
25985;BMP280;66753;53.848;10.658;2023-02-12T08:47:01;103767.91;;;9.75
25985;BMP280;66753;53.848;10.658;2023-02-12T08:52:01;103764.81;;;9.83
25985;BMP280;66753;53.848;10.658;2023-02-12T08:57:02;103764.44;;;10.01
25985;BMP280;66753;53.848;10.658;2023-02-12T09:02:03;103767.72;;;10.18
25985;BMP280;66753;53.848;10.658;2023-02-12T09:07:07;103767.72;;;10.18
25985;BMP280;66753;53.848;10.658;2023-02-12T09:12:08;103770.41;;;10.23
25985;BMP280;66753;53.848;10.658;2023-02-12T09:17:08;103782.69;;;10.34
25985;BMP280;66753;53.848;10.658;2023-02-12T09:22:09;103777.69;;;10.37
25985;BMP280;66753;53.848;10.658;2023-02-12T09:27:09;103792.88;;;10.57
25985;BMP280;66753;53.848;10.658;2023-02-12T09:32:09;103795.63;;;10.72
25985;BMP280;66753;53.848;10.658;2023-02-12T09:37:10;103806.25;;;10.72
25985;BMP280;66753;53.848;10.658;2023-02-12T09:52:41;103799.63;;;10.79
25985;BMP280;66753;53.848;10.658;2023-02-12T09:57:42;103797.28;;;10.83
25985;BMP280;66753;53.848;10.658;2023-02-12T10:02:51;103793.09;;;11.02
25985;BMP280;66753;53.848;10.658;2023-02-12T10:23:41;103804.34;;;11.34
25985;BMP280;66753;53.848;10.658;2023-02-12T10:28:44;103801.19;;;11.42
25985;BMP280;66753;53.848;10.658;2023-02-12T10:33:49;103792.16;;;11.38
25985;BMP280;66753;53.848;10.658;2023-02-12T10:38:54;103792.97;;;11.58
25985;BMP280;66753;53.848;10.658;2023-02-12T10:43:57;103792.97;;;11.48
25985;BMP280;66753;53.848;10.658;2023-02-12T10:48:58;103792.72;;;11.50
25985;BMP280;66753;53.848;10.658;2023-02-12T10:59:32;103790.88;;;11.75
25985;BMP280;66753;53.848;10.658;2023-02-12T11:04:32;103789.00;;;11.81
25985;BMP280;66753;53.848;10.658;2023-02-12T11:09:42;103773.31;;;11.89
25985;BMP280;66753;53.848;10.658;2023-02-12T11:14:53;103786.59;;;11.94
25985;BMP280;66753;53.848;10.658;2023-02-12T11:25:17;103781.50;;;12.13
25985;BMP280;66753;53.848;10.658;2023-02-12T11:30:20;103760.50;;;12.06
25985;BMP280;66753;53.848;10.658;2023-02-12T11:35:24;103770.84;;;12.18
25985;BMP280;66753;53.848;10.658;2023-02-12T11:40:30;103757.56;;;12.13
25985;BMP280;66753;53.848;10.658;2023-02-12T11:45:36;103773.53;;;12.18
25985;BMP280;66753;53.848;10.658;2023-02-12T11:50:46;103759.69;;;12.11
25985;BMP280;66753;53.848;10.658;2023-02-12T11:56:02;103771.91;;;12.37
25985;BMP280;66753;53.848;10.658;2023-02-12T12:17:02;103762.63;;;12.24
25985;BMP280;66753;53.848;10.658;2023-02-12T12:22:56;103766.06;;;12.20
25985;BMP280;66753;53.848;10.658;2023-02-12T12:49:46;103754.91;;;12.18
25985;BMP280;66753;53.848;10.658;2023-02-12T12:55:14;103747.97;;;12.27
25985;BMP280;66753;53.848;10.658;2023-02-12T13:00:26;103741.34;;;12.24
25985;BMP280;66753;53.848;10.658;2023-02-12T13:21:13;103733.66;;;11.98
25985;BMP280;66753;53.848;10.658;2023-02-12T13:31:22;103730.72;;;12.04
25985;BMP280;66753;53.848;10.658;2023-02-12T13:36:23;103721.72;;;11.95
25985;BMP280;66753;53.848;10.658;2023-02-12T13:41:24;103712.97;;;11.85
25985;BMP280;66753;53.848;10.658;2023-02-12T13:46:53;103722.53;;;11.96
25985;BMP280;66753;53.848;10.658;2023-02-12T13:52:05;103715.09;;;11.73
25985;BMP280;66753;53.848;10.658;2023-02-12T13:57:17;103709.78;;;11.78
25985;BMP280;66753;53.848;10.658;2023-02-12T14:02:40;103719.63;;;11.82
25985;BMP280;66753;53.848;10.658;2023-02-12T14:07:51;103721.47;;;11.82
25985;BMP280;66753;53.848;10.658;2023-02-12T14:12:55;103704.44;;;11.63
25985;BMP280;66753;53.848;10.658;2023-02-12T14:23:27;103698.63;;;11.51
25985;BMP280;66753;53.848;10.658;2023-02-12T14:33:52;103693.84;;;11.43
25985;BMP280;66753;53.848;10.658;2023-02-12T14:49:23;103698.09;;;11.44
25985;BMP280;66753;53.848;10.658;2023-02-12T14:59:43;103694.13;;;11.21
25985;BMP280;66753;53.848;10.658;2023-02-12T15:04:44;103698.06;;;11.14
25985;BMP280;66753;53.848;10.658;2023-02-12T15:09:50;103693.81;;;11.13
25985;BMP280;66753;53.848;10.658;2023-02-12T15:15:03;103690.09;;;11.09
25985;BMP280;66753;53.848;10.658;2023-02-12T15:20:36;103695.41;;;11.09
25985;BMP280;66753;53.848;10.658;2023-02-12T15:25:37;103678.41;;;11.00
25985;BMP280;66753;53.848;10.658;2023-02-12T15:30:41;103698.03;;;10.89
25985;BMP280;66753;53.848;10.658;2023-02-12T15:35:43;103696.69;;;10.86
25985;BMP280;66753;53.848;10.658;2023-02-12T15:40:56;103710.75;;;10.77
25985;BMP280;66753;53.848;10.658;2023-02-12T15:45:57;103706.47;;;10.66
25985;BMP280;66753;53.848;10.658;2023-02-12T15:56:03;103708.97;;;10.41
25985;BMP280;66753;53.848;10.658;2023-02-12T16:01:04;103698.59;;;10.34
25985;BMP280;66753;53.848;10.658;2023-02-12T16:06:10;103693.81;;;10.26
25985;BMP280;66753;53.848;10.658;2023-02-12T16:22:38;103720.50;;;10.15
25985;BMP280;66753;53.848;10.658;2023-02-12T16:27:39;103725.28;;;10.13
25985;BMP280;66753;53.848;10.658;2023-02-12T16:32:41;103734.53;;;10.10
25985;BMP280;66753;53.848;10.658;2023-02-12T16:37:47;103743.56;;;10.14
25985;BMP280;66753;53.848;10.658;2023-02-12T16:47:49;103742.47;;;10.05
25985;BMP280;66753;53.848;10.658;2023-02-12T16:53:00;103743.78;;;10.08
25985;BMP280;66753;53.848;10.658;2023-02-12T16:58:02;103749.88;;;10.03
25985;BMP280;66753;53.848;10.658;2023-02-12T17:03:03;103744.78;;;9.97
25985;BMP280;66753;53.848;10.658;2023-02-12T17:08:13;103714.69;;;9.81
25985;BMP280;66753;53.848;10.658;2023-02-12T17:13:14;103738.06;;;9.84
25985;BMP280;66753;53.848;10.658;2023-02-12T17:18:14;103736.72;;;9.82
25985;BMP280;66753;53.848;10.658;2023-02-12T17:23:15;103744.13;;;9.80
25985;BMP280;66753;53.848;10.658;2023-02-12T17:28:16;103748.31;;;9.76
25985;BMP280;66753;53.848;10.658;2023-02-12T17:33:16;103741.63;;;9.68
25985;BMP280;66753;53.848;10.658;2023-02-12T17:38:17;103748.50;;;9.69
25985;BMP280;66753;53.848;10.658;2023-02-12T17:43:17;103753.81;;;9.69
25985;BMP280;66753;53.848;10.658;2023-02-12T17:48:18;103745.84;;;9.64
25985;BMP280;66753;53.848;10.658;2023-02-12T17:53:21;103768.94;;;9.69
25985;BMP280;66753;53.848;10.658;2023-02-12T17:58:21;103765.16;;;9.65
25985;BMP280;66753;53.848;10.658;2023-02-12T18:03:22;103770.41;;;9.60
25985;BMP280;66753;53.848;10.658;2023-02-12T18:08:22;103772.22;;;9.54
25985;BMP280;66753;53.848;10.658;2023-02-12T18:13:24;103777.81;;;9.58
25985;BMP280;66753;53.848;10.658;2023-02-12T18:18:24;103782.56;;;9.56
25985;BMP280;66753;53.848;10.658;2023-02-12T18:23:24;103780.72;;;9.56
25985;BMP280;66753;53.848;10.658;2023-02-12T18:28:25;103774.63;;;9.56
25985;BMP280;66753;53.848;10.658;2023-02-12T18:33:25;103783.91;;;9.53
25985;BMP280;66753;53.848;10.658;2023-02-12T18:38:26;103787.81;;;9.51
25985;BMP280;66753;53.848;10.658;2023-02-12T18:43:27;103791.75;;;9.48
25985;BMP280;66753;53.848;10.658;2023-02-12T18:48:27;103783.81;;;9.48
25985;BMP280;66753;53.848;10.658;2023-02-12T18:53:28;103774.50;;;9.46
25985;BMP280;66753;53.848;10.658;2023-02-12T18:58:28;103779.03;;;9.45
25985;BMP280;66753;53.848;10.658;2023-02-12T19:03:28;103771.56;;;9.42
25985;BMP280;66753;53.848;10.658;2023-02-12T19:08:29;103766.25;;;9.42
25985;BMP280;66753;53.848;10.658;2023-02-12T19:13:29;103776.31;;;9.40
25985;BMP280;66753;53.848;10.658;2023-02-12T19:18:30;103782.13;;;9.37
25985;BMP280;66753;53.848;10.658;2023-02-12T19:23:30;103775.50;;;9.40
25985;BMP280;66753;53.848;10.658;2023-02-12T19:28:31;103775.75;;;9.38
25985;BMP280;66753;53.848;10.658;2023-02-12T19:33:31;103774.91;;;9.33
25985;BMP280;66753;53.848;10.658;2023-02-12T19:38:33;103784.72;;;9.32
25985;BMP280;66753;53.848;10.658;2023-02-12T19:43:33;103783.09;;;9.31
25985;BMP280;66753;53.848;10.658;2023-02-12T19:48:35;103775.38;;;9.30
25985;BMP280;66753;53.848;10.658;2023-02-12T19:53:35;103776.41;;;9.24
25985;BMP280;66753;53.848;10.658;2023-02-12T19:58:36;103790.44;;;9.24
25985;BMP280;66753;53.848;10.658;2023-02-12T20:03:37;103793.81;;;9.20
25985;BMP280;66753;53.848;10.658;2023-02-12T20:08:40;103781.81;;;9.12
25985;BMP280;66753;53.848;10.658;2023-02-12T20:13:41;103788.47;;;9.15
25985;BMP280;66753;53.848;10.658;2023-02-12T20:18:43;103777.31;;;9.13
25985;BMP280;66753;53.848;10.658;2023-02-12T20:23:44;103781.88;;;9.17
25985;BMP280;66753;53.848;10.658;2023-02-12T20:28:45;103784.59;;;9.22
25985;BMP280;66753;53.848;10.658;2023-02-12T20:33:46;103784.81;;;9.21
25985;BMP280;66753;53.848;10.658;2023-02-12T20:38:51;103782.38;;;9.14
25985;BMP280;66753;53.848;10.658;2023-02-12T20:43:53;103776.28;;;9.14
25985;BMP280;66753;53.848;10.658;2023-02-12T20:48:54;103786.91;;;9.19
25985;BMP280;66753;53.848;10.658;2023-02-12T20:53:54;103765.72;;;9.19
25985;BMP280;66753;53.848;10.658;2023-02-12T20:58:55;103773.16;;;9.17
25985;BMP280;66753;53.848;10.658;2023-02-12T21:03:55;103760.38;;;9.14
25985;BMP280;66753;53.848;10.658;2023-02-12T21:08:56;103771.78;;;9.14
25985;BMP280;66753;53.848;10.658;2023-02-12T21:13:58;103779.97;;;9.13
25985;BMP280;66753;53.848;10.658;2023-02-12T21:18:59;103778.63;;;9.10
25985;BMP280;66753;53.848;10.658;2023-02-12T21:24:01;103773.19;;;9.00
25985;BMP280;66753;53.848;10.658;2023-02-12T21:29:02;103761.75;;;8.94
25985;BMP280;66753;53.848;10.658;2023-02-12T21:34:05;103772.13;;;8.96
25985;BMP280;66753;53.848;10.658;2023-02-12T21:39:08;103773.47;;;8.99
25985;BMP280;66753;53.848;10.658;2023-02-12T21:44:14;103785.66;;;9.00
25985;BMP280;66753;53.848;10.658;2023-02-12T21:49:16;103769.00;;;8.99
25985;BMP280;66753;53.848;10.658;2023-02-12T21:54:24;103775.84;;;9.00
25985;BMP280;66753;53.848;10.658;2023-02-12T21:59:25;103772.94;;;9.02
25985;BMP280;66753;53.848;10.658;2023-02-12T22:04:26;103782.56;;;9.08
25985;BMP280;66753;53.848;10.658;2023-02-12T22:09:27;103774.88;;;9.06
25985;BMP280;66753;53.848;10.658;2023-02-12T22:14:27;103770.16;;;9.08
25985;BMP280;66753;53.848;10.658;2023-02-12T22:19:28;103772.47;;;9.05
25985;BMP280;66753;53.848;10.658;2023-02-12T22:24:28;103766.69;;;9.08
25985;BMP280;66753;53.848;10.658;2023-02-12T22:29:29;103769.00;;;8.99
25985;BMP280;66753;53.848;10.658;2023-02-12T22:34:29;103783.25;;;8.98
25985;BMP280;66753;53.848;10.658;2023-02-12T22:39:30;103771.88;;;8.98
25985;BMP280;66753;53.848;10.658;2023-02-12T22:44:30;103767.53;;;8.91
25985;BMP280;66753;53.848;10.658;2023-02-12T22:49:31;103775.44;;;8.87
25985;BMP280;66753;53.848;10.658;2023-02-12T22:54:32;103778.91;;;8.92
25985;BMP280;66753;53.848;10.658;2023-02-12T22:59:32;103781.91;;;8.96
25985;BMP280;66753;53.848;10.658;2023-02-12T23:04:32;103781.31;;;8.93
25985;BMP280;66753;53.848;10.658;2023-02-12T23:09:33;103775.06;;;9.00
25985;BMP280;66753;53.848;10.658;2023-02-12T23:14:34;103775.53;;;8.97
25985;BMP280;66753;53.848;10.658;2023-02-12T23:19:35;103756.44;;;8.94
25985;BMP280;66753;53.848;10.658;2023-02-12T23:24:35;103743.72;;;8.91
25985;BMP280;66753;53.848;10.658;2023-02-12T23:29:36;103759.09;;;8.94
25985;BMP280;66753;53.848;10.658;2023-02-12T23:34:36;103761.28;;;8.98
25985;BMP280;66753;53.848;10.658;2023-02-12T23:39:39;103762.88;;;8.99
25985;BMP280;66753;53.848;10.658;2023-02-12T23:44:39;103755.44;;;8.96
25985;BMP280;66753;53.848;10.658;2023-02-12T23:49:40;103760.16;;;8.93
25985;BMP280;66753;53.848;10.658;2023-02-12T23:54:40;103740.00;;;8.88
25985;BMP280;66753;53.848;10.658;2023-02-12T23:59:41;103745.75;;;8.84
